Time;durP1;ratioP1;P1;durP2;ratioP2;P2;SDS_P1;SDS_P2;PMS_P1;PMS_P2;Temp;Humidity;BMP_temperature;BMP_pressure;BME280_temperature;BME280_humidity;BME280_pressure;Samples;Min_cycle;Max_cycle;Signal;HPM_P1;HPM_P2
2022/05/02 00:02:24;;;;;;;42.33;23.90;;;;;;;10.97;52.42;98679.38;5051504;28;20039;-78
2022/05/02 00:04:49;;;;;;;44.72;24.40;;;;;;;10.98;53.69;98681.81;5052131;28;20029;-78
2022/05/02 00:07:15;;;;;;;47.47;25.08;;;;;;;10.99;52.81;98686.19;5050226;28;20033;-78
2022/05/02 00:09:41;;;;;;;43.88;24.92;;;;;;;11.00;53.39;98685.09;5051629;28;20032;-78
2022/05/02 00:12:07;;;;;;;44.65;25.05;;;;;;;11.00;53.21;98682.34;5050463;28;20021;-77
2022/05/02 00:14:32;;;;;;;44.85;25.95;;;;;;;11.00;53.05;98681.53;5051367;28;20388;-78
2022/05/02 00:16:58;;;;;;;47.38;26.40;;;;;;;11.02;53.50;98679.28;5052054;28;20017;-79
2022/05/02 00:19:24;;;;;;;45.45;26.13;;;;;;;11.03;53.19;98683.69;5052178;28;20431;-78
2022/05/02 00:21:49;;;;;;;47.22;26.33;;;;;;;11.06;53.22;98676.81;5051921;28;20051;-78
2022/05/02 00:24:15;;;;;;;42.13;23.52;;;;;;;11.05;54.15;98680.66;5050798;28;20028;-78
2022/05/02 00:26:41;;;;;;;52.30;27.77;;;;;;;11.06;53.25;98685.03;5050527;28;20021;-78
2022/05/02 00:29:07;;;;;;;51.45;25.88;;;;;;;11.06;53.58;98685.03;5050578;28;20036;-79
2022/05/02 00:31:32;;;;;;;50.83;26.38;;;;;;;11.05;53.44;98683.41;5050732;28;20017;-79
2022/05/02 00:33:57;;;;;;;58.50;28.48;;;;;;;11.00;53.41;98685.09;5050532;28;20013;-79
2022/05/02 00:36:24;;;;;;;52.78;27.10;;;;;;;10.96;53.94;98684.03;5050195;28;20017;-79
2022/05/02 00:38:50;;;;;;;53.35;27.63;;;;;;;10.87;53.95;98691.28;5050875;28;20025;-78
2022/05/02 00:41:16;;;;;;;47.45;24.05;;;;;;;10.83;54.17;98671.03;5050412;28;20469;-78
2022/05/02 00:43:41;;;;;;;52.58;26.50;;;;;;;10.85;53.91;98674.28;5050440;28;20028;-78
2022/05/02 00:46:22;;;;;;;52.00;25.42;;;;;;;10.83;54.58;98673.75;5049135;28;20037;-78
2022/05/02 00:48:49;;;;;;;77.15;33.30;;;;;;;10.84;54.33;98678.16;5048776;28;20064;-78
2022/05/02 00:51:16;;;;;;;54.05;26.63;;;;;;;10.85;54.26;98672.38;5050557;28;20028;-78
2022/05/02 00:53:43;;;;;;;59.67;28.70;;;;;;;10.85;54.53;98666.91;5050934;28;20023;-78
2022/05/02 00:56:09;;;;;;;70.43;30.48;;;;;;;10.86;54.15;98675.94;5049628;28;20036;-79
2022/05/02 00:58:36;;;;;;;55.58;26.17;;;;;;;10.86;54.93;98676.75;5049994;28;20029;-79
2022/05/02 01:01:02;;;;;;;49.90;24.40;;;;;;;10.87;54.54;98672.06;5049652;28;20021;-78
2022/05/02 01:03:28;;;;;;;43.88;23.05;;;;;;;10.87;54.96;98674.81;5049723;28;20024;-78
2022/05/02 01:08:38;;;;;;;46.60;23.02;;;;;;;10.89;54.65;98675.34;5049643;28;20056;-79
2022/05/02 01:11:04;;;;;;;50.60;25.25;;;;;;;10.87;54.38;98675.66;5049747;28;20025;-78
2022/05/02 01:13:46;;;;;;;41.00;21.95;;;;;;;10.86;54.13;98679.50;5047821;28;20370;-77
2022/05/02 01:16:22;;;;;;;48.67;25.83;;;;;;;10.85;54.18;98672.38;5047000;28;20789;-79
2022/05/02 01:18:50;;;;;;;43.33;25.20;;;;;;;10.84;53.87;98675.41;5049399;28;20029;-79
2022/05/02 01:21:29;;;;;;;57.03;32.63;;;;;;;10.76;53.62;98673.31;5049391;28;20028;-79
2022/05/02 01:23:58;;;;;;;51.15;30.65;;;;;;;10.70;54.58;98673.38;5049232;28;20028;-79
2022/05/02 01:26:24;;;;;;;52.05;30.00;;;;;;;10.66;54.62;98668.75;5049135;28;20108;-79
2022/05/02 01:28:52;;;;;;;46.97;28.88;;;;;;;10.63;54.61;98661.09;5049342;28;20028;-78
2022/05/02 01:31:18;;;;;;;49.03;31.45;;;;;;;10.58;55.28;98659.25;5048407;28;20041;-78
2022/05/02 01:33:44;;;;;;;48.88;30.13;;;;;;;10.53;54.84;98662.88;5080102;28;20025;-78
2022/05/02 01:36:10;;;;;;;47.65;30.40;;;;;;;10.49;54.79;98658.25;5048764;28;20068;-78
2022/05/02 01:38:36;;;;;;;48.45;29.85;;;;;;;10.41;55.33;98654.22;5047987;28;20048;-79
2022/05/02 01:41:06;;;;;;;49.38;29.05;;;;;;;10.33;55.00;98658.38;5048889;28;20083;-79
2022/05/02 01:43:32;;;;;;;;;;;;;;;10.25;55.01;98654.34;5049030;28;20053;-78
2022/05/02 01:45:59;;;;;;;39.10;25.45;;;;;;;10.19;55.51;98651.94;5048572;28;19967;-79
2022/05/02 01:48:24;;;;;;;40.45;25.25;;;;;;;10.09;54.94;98645.44;5048327;28;20033;-78
2022/05/02 01:50:50;;;;;;;42.97;26.85;;;;;;;10.05;55.16;98649.88;5048893;28;20036;-78
2022/05/02 01:53:15;;;;;;;43.95;27.10;;;;;;;10.01;55.56;98642.53;5048758;28;20021;-78
2022/05/02 01:55:40;;;;;;;42.15;26.92;;;;;;;9.99;55.36;98651.00;5048830;28;20083;-78
2022/05/02 01:58:06;;;;;;;46.85;26.08;;;;;;;9.96;55.93;98655.16;5048506;28;20055;-79
2022/05/02 02:00:32;;;;;;;43.50;26.00;;;;;;;9.93;56.20;98649.44;5048862;28;20810;-79
2022/05/02 02:02:57;;;;;;;36.28;23.42;;;;;;;9.88;56.14;98653.03;5048508;28;20021;-79
2022/05/02 02:08:07;;;;;;;35.88;22.27;;;;;;;9.82;56.60;98652.25;5048227;28;20047;-78
2022/05/02 02:10:32;;;;;;;36.67;23.23;;;;;;;9.80;55.82;98643.50;5050145;28;20029;-78
2022/05/02 02:12:58;;;;;;;36.58;23.10;;;;;;;9.78;56.00;98651.19;5049500;28;20039;-79
2022/05/02 02:15:24;;;;;;;33.97;22.33;;;;;;;9.79;56.15;98646.53;5048212;28;20488;-79
2022/05/02 02:17:49;;;;;;;32.30;20.05;;;;;;;9.78;56.38;98653.13;5050106;28;20481;-78
2022/05/02 02:20:15;;;;;;;29.13;20.13;;;;;;;9.76;56.76;98650.66;5049768;28;20028;-78
2022/05/02 02:22:41;;;;;;;32.50;21.00;;;;;;;9.76;56.67;98650.66;5049891;28;20735;-78
2022/05/02 02:25:07;;;;;;;34.03;21.40;;;;;;;9.75;56.46;98650.97;5048447;28;20052;-78
2022/05/02 02:27:33;;;;;;;35.00;21.58;;;;;;;9.72;56.07;98646.88;5049891;28;20028;-78
2022/05/02 02:29:59;;;;;;;32.25;21.13;;;;;;;9.70;56.68;98648.25;5050090;28;20087;-79
2022/05/02 02:32:25;;;;;;;28.80;19.73;;;;;;;9.68;56.54;98654.00;5050180;28;20056;-78
2022/05/02 02:34:51;;;;;;;31.52;21.58;;;;;;;9.63;56.49;98652.13;5049300;28;20152;-78
2022/05/02 02:37:17;;;;;;;30.50;21.23;;;;;;;9.60;56.58;98649.13;5051297;28;20045;-78
2022/05/02 02:39:43;;;;;;;35.60;22.92;;;;;;;9.58;57.48;98656.84;5050504;28;20041;-78
2022/05/02 02:42:09;;;;;;;32.92;21.70;;;;;;;9.56;57.29;98651.63;5050654;28;20534;-78
2022/05/02 02:44:35;;;;;;;43.17;23.48;;;;;;;9.55;56.79;98660.16;5050207;28;20103;-78
2022/05/02 02:47:01;;;;;;;35.33;20.52;;;;;;;9.51;56.48;98660.72;5051304;28;20035;-79
2022/05/02 02:49:26;;;;;;;31.25;20.45;;;;;;;9.46;56.37;98658.00;5050965;28;20029;-78
2022/05/02 02:51:52;;;;;;;34.53;20.27;;;;;;;9.42;56.67;98658.84;5051282;28;20075;-78
2022/05/02 02:54:17;;;;;;;32.58;19.45;;;;;;;9.37;56.60;98659.72;5050709;28;20021;-78
2022/05/02 02:56:43;;;;;;;29.75;20.25;;;;;;;9.39;57.07;98657.50;5050535;28;20028;-78
2022/05/02 02:59:08;;;;;;;30.05;20.30;;;;;;;9.37;57.55;98652.28;5050543;28;20048;-78
2022/05/02 03:01:34;;;;;;;34.13;21.20;;;;;;;9.36;57.24;98658.06;5050537;28;20104;-78
2022/05/02 03:06:01;;;;;;;33.38;21.10;;;;;;;9.35;57.25;98657.25;5049988;28;20021;-78
2022/05/02 03:06:45;;;;;;;31.92;20.77;;;;;;;9.36;57.50;98655.34;5050150;28;20551;-78
2022/05/02 03:09:11;;;;;;;33.83;21.15;;;;;;;9.35;57.49;98657.25;5048896;28;20021;-79
2022/05/02 03:11:37;;;;;;;33.90;21.30;;;;;;;9.35;57.69;98661.91;5050001;28;20426;-79
2022/05/02 03:14:02;;;;;;;33.38;21.65;;;;;;;9.33;57.86;98655.91;5050152;28;20029;-79
2022/05/02 03:16:27;;;;;;;32.83;20.67;;;;;;;9.31;57.81;98658.09;5048756;28;20489;-79
2022/05/02 03:18:53;;;;;;;36.50;22.00;;;;;;;9.27;57.64;98657.03;5047655;28;20386;-78
2022/05/02 03:21:18;;;;;;;36.10;21.67;;;;;;;9.21;57.43;98653.50;5049155;28;20029;-78
2022/05/02 03:23:44;;;;;;;35.38;21.88;;;;;;;9.18;57.64;98654.06;5048969;28;20094;-78
2022/05/02 03:26:09;;;;;;;33.60;22.05;;;;;;;9.16;57.86;98650.78;5047275;28;20027;-78
2022/05/02 03:28:34;;;;;;;36.80;24.20;;;;;;;9.13;58.66;98640.41;5048642;28;20033;-78
2022/05/02 03:31:00;;;;;;;38.53;22.95;;;;;;;9.08;57.71;98649.47;5049151;28;20438;-78
2022/05/02 03:33:25;;;;;;;36.90;23.58;;;;;;;9.03;58.07;98644.03;5048916;28;20028;-78
2022/05/02 03:35:51;;;;;;;37.42;23.55;;;;;;;9.00;57.96;98641.84;5048485;28;20501;-78
2022/05/02 03:38:16;;;;;;;42.63;23.45;;;;;;;8.99;58.12;98646.50;5048351;28;20032;-79
2022/05/02 03:40:41;;;;;;;37.65;23.17;;;;;;;8.96;58.19;98644.34;5048726;28;20500;-79
2022/05/02 03:43:07;;;;;;;38.83;23.80;;;;;;;8.93;58.04;98642.16;5048441;28;20074;-79
2022/05/02 03:45:32;;;;;;;34.75;22.20;;;;;;;8.89;58.56;98643.81;5047158;28;20485;-78
2022/05/02 03:47:59;;;;;;;35.25;21.38;;;;;;;8.87;58.56;98643.28;5047684;28;20021;-77
2022/05/02 03:50:24;;;;;;;36.22;23.23;;;;;;;8.83;58.59;98642.22;5048724;28;20040;-79
2022/05/02 03:52:50;;;;;;;39.47;24.08;;;;;;;8.79;58.73;98641.94;5048596;28;20025;-78
2022/05/02 03:55:15;;;;;;;42.28;24.55;;;;;;;8.77;58.85;98644.97;5048504;28;20024;-79
2022/05/02 03:57:41;;;;;;;38.95;22.90;;;;;;;8.75;59.00;98638.94;5048731;28;20028;-78
2022/05/02 04:00:08;;;;;;;36.30;23.08;;;;;;;8.73;58.49;98637.59;5048093;28;20033;-78
2022/05/02 04:02:34;;;;;;;38.88;24.48;;;;;;;8.72;58.38;98638.72;5048548;28;20474;-79
2022/05/02 04:05:00;;;;;;;35.50;24.10;;;;;;;8.71;58.96;98642.53;5047872;28;20167;-79
2022/05/02 04:07:25;;;;;;;39.88;23.75;;;;;;;8.67;58.56;98642.25;5048488;28;20025;-78
2022/05/02 04:09:50;;;;;;;35.55;22.83;;;;;;;8.64;58.41;98640.09;5048094;28;20156;-79
2022/05/02 04:12:16;;;;;;;35.88;23.05;;;;;;;8.61;58.84;98649.66;5046972;28;20473;-78
2022/05/02 04:14:42;;;;;;;39.00;24.85;;;;;;;8.60;58.58;98639.00;5049186;28;20040;-78
2022/05/02 04:17:07;;;;;;;42.30;26.17;;;;;;;8.61;58.70;98646.09;5048555;28;20036;-78
2022/05/02 04:19:33;;;;;;;40.13;27.10;;;;;;;8.62;59.44;98651.31;5047931;28;20029;-78
2022/05/02 04:21:59;;;;;;;46.08;27.10;;;;;;;8.61;59.36;98654.31;5048606;28;20517;-78
2022/05/02 04:24:24;;;;;;;47.63;29.67;;;;;;;8.62;59.09;98653.22;5052109;28;20032;-79
2022/05/02 04:26:49;;;;;;;50.60;30.70;;;;;;;8.67;59.46;98655.13;5051669;28;20024;-79
2022/05/02 04:29:15;;;;;;;52.65;33.50;;;;;;;8.69;59.56;98647.47;5052059;28;20470;-79
2022/05/02 04:31:40;;;;;;;72.90;41.22;;;;;;;8.71;59.28;98653.47;5051863;28;20033;-79
2022/05/02 04:34:06;;;;;;;80.20;40.47;;;;;;;8.70;59.75;98658.09;5051323;28;20380;-78
2022/05/02 04:36:31;;;;;;;75.05;40.85;;;;;;;8.74;59.94;98663.84;5051081;28;20017;-78
2022/05/02 04:38:57;;;;;;;79.70;41.38;;;;;;;8.78;59.79;98667.63;5052228;28;20440;-79
2022/05/02 04:41:22;;;;;;;71.30;40.17;;;;;;;8.83;60.05;98666.81;5050491;28;20120;-78
2022/05/02 04:43:51;;;;;;;78.72;42.25;;;;;;;8.87;60.07;98665.97;5051905;28;20062;-79
2022/05/02 04:46:21;;;;;;;67.38;40.25;;;;;;;8.93;59.45;98661.31;5051011;28;20080;-78
2022/05/02 04:48:46;;;;;;;71.43;39.95;;;;;;;9.01;60.12;98659.91;5051236;28;20095;-79
2022/05/02 04:51:11;;;;;;;61.13;38.35;;;;;;;9.07;59.82;98656.84;5051187;28;20469;-79
2022/05/02 04:53:37;;;;;;;66.72;39.92;;;;;;;9.16;60.17;98659.84;5051375;28;20017;-78
2022/05/02 04:56:03;;;;;;;63.58;39.22;;;;;;;9.27;60.30;98666.06;5050940;28;20028;-79
2022/05/02 04:58:28;;;;;;;66.18;38.05;;;;;;;9.37;59.90;98656.97;5051493;28;20025;-79
2022/05/02 05:00:53;;;;;;;66.43;39.70;;;;;;;9.49;60.17;98662.09;5051159;28;20540;-79
2022/05/02 05:03:21;;;;;;;62.60;39.03;;;;;;;9.61;60.37;98665.28;5051191;28;20032;-79
2022/05/02 05:05:47;;;;;;;64.55;39.60;;;;;;;9.74;59.96;98654.81;5049966;28;20032;-78
2022/05/02 05:08:14;;;;;;;62.38;38.70;;;;;;;9.89;59.72;98654.66;5049467;28;20032;-79
2022/05/02 05:11:09;;;;;;;62.42;40.50;;;;;;;10.07;60.13;98663.28;5050910;28;20036;-79
2022/05/02 05:13:43;;;;;;;63.25;39.13;;;;;;;10.22;60.13;98657.66;5042842;28;20033;-78
2022/05/02 05:16:39;;;;;;;64.30;38.55;;;;;;;10.38;59.50;98663.00;5047231;28;20032;-79
2022/05/02 05:19:26;;;;;;;60.20;37.08;;;;;;;10.58;58.94;98659.25;5049975;28;20462;-78
2022/05/02 05:21:58;;;;;;;52.28;33.63;;;;;;;10.75;59.32;98660.72;5050607;28;20067;-79
2022/05/02 05:24:45;;;;;;;49.15;31.67;;;;;;;10.93;59.01;98659.94;5051045;28;20032;-79
2022/05/02 05:27:36;;;;;;;50.00;31.15;;;;;;;11.07;58.94;98668.25;5048701;28;20061;-79
2022/05/02 05:30:09;;;;;;;48.70;30.48;;;;;;;11.24;59.23;98664.22;5041621;28;20049;-79
2022/05/02 05:32:51;;;;;;;50.60;32.47;;;;;;;11.35;59.16;98660.22;5050334;28;20052;-79
2022/05/02 05:35:28;;;;;;;50.33;33.20;;;;;;;11.48;58.50;98666.88;5048280;28;20104;-78
2022/05/02 05:38:00;;;;;;;57.60;35.20;;;;;;;11.60;58.83;98666.44;5050434;28;20503;-79
2022/05/02 05:40:39;;;;;;;51.92;33.33;;;;;;;11.73;59.18;98660.19;5049644;28;20127;-79
2022/05/02 05:43:16;;;;;;;51.53;33.25;;;;;;;11.85;59.15;98662.47;5047275;28;20466;-79
2022/05/02 05:46:00;;;;;;;45.28;30.13;;;;;;;11.95;58.27;98655.19;5048486;28;20037;-79
2022/05/02 05:48:44;;;;;;;46.47;29.55;;;;;;;12.05;58.44;98652.28;5050063;28;20037;-79
2022/05/02 05:51:21;;;;;;;44.22;27.75;;;;;;;12.16;58.11;98659.22;5050504;28;20489;-79
2022/05/02 05:54:05;;;;;;;42.95;28.95;;;;;;;12.26;58.05;98662.94;5050367;28;20024;-79
2022/05/02 05:56:52;;;;;;;45.13;29.65;;;;;;;12.35;57.88;98659.16;5050136;28;20033;-79
2022/05/02 05:59:36;;;;;;;45.67;29.15;;;;;;;12.44;57.23;98651.03;5048830;28;20033;-79
2022/05/02 06:02:08;;;;;;;44.95;28.42;;;;;;;12.54;57.15;98651.94;5049605;28;20032;-79
2022/05/02 06:04:34;;;;;;;44.85;28.52;;;;;;;12.62;57.24;98654.84;5049499;28;20549;-79
2022/05/02 06:07:00;;;;;;;42.13;28.15;;;;;;;12.74;56.83;98656.25;5050180;28;20116;-79
2022/05/02 06:09:28;;;;;;;36.05;24.48;;;;;;;12.79;56.73;98643.22;5049763;28;20020;-79
2022/05/02 06:11:57;;;;;;;38.28;25.23;;;;;;;12.89;56.55;98649.59;5049690;28;20056;-79
2022/05/02 06:14:26;;;;;;;37.07;25.43;;;;;;;12.97;56.27;98645.34;5050066;28;20534;-78
2022/05/02 06:19:42;;;;;;;37.95;25.23;;;;;;;13.14;55.90;98652.97;5049946;28;20609;-79
2022/05/02 06:22:10;;;;;;;35.00;24.70;;;;;;;13.23;55.58;98651.13;5049636;28;20025;-78
2022/05/02 06:24:37;;;;;;;40.63;25.92;;;;;;;13.30;55.31;98659.75;5049057;28;20025;-79
2022/05/02 06:27:03;;;;;;;37.13;25.30;;;;;;;13.37;55.08;98651.06;5049390;28;20036;-79
2022/05/02 06:29:29;;;;;;;40.53;26.52;;;;;;;13.46;55.46;98659.44;5049447;28;20064;-79
2022/05/02 06:31:58;;;;;;;38.75;26.48;;;;;;;13.53;55.06;98660.63;5049564;28;20099;-79
2022/05/02 06:34:27;;;;;;;40.78;27.63;;;;;;;13.62;54.88;98655.22;5049904;28;20029;-78
2022/05/02 06:37:07;;;;;;;40.25;26.77;;;;;;;13.72;54.84;98653.31;5050641;28;20013;-78
2022/05/02 06:39:51;;;;;;;38.83;25.42;;;;;;;13.82;54.70;98662.19;5050391;28;20533;-79
2022/05/02 06:42:21;;;;;;;38.13;24.85;;;;;;;13.92;54.60;98661.13;5048961;28;20033;-79
2022/05/02 06:45:02;;;;;;;34.85;25.02;;;;;;;13.98;54.20;98657.09;5049032;28;20045;-78
2022/05/02 06:47:36;;;;;;;37.58;24.83;;;;;;;14.09;54.35;98654.06;5051952;28;20102;-79
2022/05/02 06:50:05;;;;;;;36.00;22.92;;;;;;;14.20;54.35;98657.41;5051651;28;20029;-79
2022/05/02 06:53:04;;;;;;;34.83;23.35;;;;;;;14.27;53.72;98655.81;5050070;28;20126;-79
2022/05/02 06:55:35;;;;;;;36.00;23.27;;;;;;;14.37;53.66;98653.91;5036604;28;20045;-79
2022/05/02 06:58:38;;;;;;;36.92;24.95;;;;;;;14.43;53.61;98661.75;5050872;28;20112;-79
2022/05/02 07:01:36;;;;;;;35.15;23.50;;;;;;;14.52;52.90;98659.00;5049411;28;20029;-79
2022/05/02 07:04:05;;;;;;;35.42;23.70;;;;;;;14.61;52.97;98663.75;5052303;28;20492;-78
2022/05/02 07:07:04;;;;;;;37.50;24.17;;;;;;;14.71;53.11;98660.75;5047923;28;20028;-78
2022/05/02 07:09:45;;;;;;;38.03;23.67;;;;;;;14.84;52.70;98659.00;5046318;28;20096;-77
2022/05/02 07:12:16;;;;;;;35.63;22.55;;;;;;;14.92;52.74;98660.16;5049755;28;20048;-78
2022/05/02 07:15:03;;;;;;;35.85;23.50;;;;;;;15.00;52.15;98662.13;5049690;28;20043;-78
2022/05/02 07:18:02;;;;;;;32.17;22.33;;;;;;;15.11;51.17;98663.47;5049969;28;20033;-78
2022/05/02 07:20:35;;;;;;;33.47;21.83;;;;;;;15.21;50.71;98667.09;5050257;28;20107;-77
2022/05/02 07:23:21;;;;;;;36.45;20.25;;;;;;;15.27;50.22;98669.34;5050000;28;20066;-77
2022/05/02 07:25:56;;;;;;;30.45;19.63;;;;;;;15.36;49.49;98661.06;5050036;28;20024;-78
2022/05/02 07:28:58;;;;;;;26.73;18.83;;;;;;;15.44;49.75;98667.78;5050832;28;20123;-78
2022/05/02 07:31:24;;;;;;;22.27;14.20;;;;;;;15.54;49.75;98669.41;5035855;28;20037;-75
2022/05/02 07:33:53;;;;;;;15.85;11.68;;;;;;;15.62;48.87;98663.84;5050154;28;20032;-75
2022/05/02 07:36:22;;;;;;;18.67;11.90;;;;;;;15.71;48.32;98671.34;5048410;28;20044;-78
2022/05/02 07:38:54;;;;;;;16.15;10.63;;;;;;;15.80;47.76;98665.81;5051951;28;20033;-78
2022/05/02 07:41:25;;;;;;;17.85;12.80;;;;;;;15.87;47.04;98668.94;5056276;28;20111;-78
2022/05/02 07:44:01;;;;;;;16.75;11.57;;;;;;;15.95;46.92;98670.06;5052137;28;20056;-78
2022/05/02 07:46:36;;;;;;;21.40;13.10;;;;;;;16.04;46.71;98668.09;5055345;28;20049;-78
2022/05/02 07:49:03;;;;;;;20.77;14.25;;;;;;;16.12;46.36;98666.44;5059201;28;20119;-78
2022/05/02 07:51:31;;;;;;;20.63;13.77;;;;;;;16.22;46.21;98669.72;5056750;28;20429;-78
2022/05/02 07:53:58;;;;;;;17.38;12.57;;;;;;;16.32;45.25;98667.72;5052937;28;20397;-78
2022/05/02 07:56:26;;;;;;;19.08;12.65;;;;;;;16.42;45.39;98667.38;5051272;28;20116;-77
2022/05/02 07:58:56;;;;;;;18.52;12.73;;;;;;;16.53;45.22;98670.56;5054081;28;20049;-77
2022/05/02 08:01:23;;;;;;;22.77;13.82;;;;;;;16.59;44.71;98662.94;5053835;28;20096;-77
2022/05/02 08:03:49;;;;;;;20.35;13.07;;;;;;;16.61;44.82;98658.66;5052584;28;20129;-78
2022/05/02 08:06:28;;;;;;;16.63;12.60;;;;;;;16.66;45.10;98658.47;5057813;28;20025;-77
2022/05/02 08:09:24;;;;;;;17.55;11.75;;;;;;;16.77;44.81;98656.16;5052951;28;20120;-75
2022/05/02 08:12:06;;;;;;;16.23;10.45;;;;;;;16.94;44.84;98660.00;5052632;28;20102;-77
2022/05/02 08:14:44;;;;;;;14.45;10.00;;;;;;;17.01;44.31;98653.94;5057077;28;20032;-77
2022/05/02 08:17:33;;;;;;;16.58;10.57;;;;;;;17.11;44.00;98654.41;5052828;28;20029;-77
2022/05/02 08:20:33;;;;;;;14.73;9.70;;;;;;;17.20;42.47;98643.25;5052840;28;20513;-76
2022/05/02 08:29:34;;;;;;;14.32;10.73;;;;;;;17.47;42.63;98648.63;5053480;28;20467;-75
2022/05/02 08:32:10;;;;;;;21.70;13.70;;;;;;;17.56;42.11;98641.84;5051353;28;20021;-77
2022/05/02 08:34:38;;;;;;;17.20;12.55;;;;;;;17.66;42.77;98639.81;5053017;28;20025;-76
2022/05/02 08:37:07;;;;;;;16.92;12.38;;;;;;;17.79;40.82;98644.25;5050851;28;20069;-75
2022/05/02 08:39:49;;;;;;;19.77;13.50;;;;;;;17.86;42.05;98640.94;5051144;28;20473;-75
2022/05/02 08:42:52;;;;;;;24.02;14.90;;;;;;;17.99;42.46;98645.41;5050928;28;20036;-75
2022/05/02 08:45:46;;;;;;;16.65;12.45;;;;;;;18.09;42.41;98638.63;5050256;28;20084;-75
2022/05/02 08:48:33;;;;;;;19.20;13.88;;;;;;;18.20;41.50;98635.41;5051812;28;20029;-74
2022/05/02 08:51:23;;;;;;;20.35;13.80;;;;;;;18.26;41.33;98628.47;5051263;28;20044;-74
2022/05/02 08:54:22;;;;;;;20.13;13.52;;;;;;;18.34;41.35;98635.13;5051244;28;20036;-74
2022/05/02 08:57:14;;;;;;;19.20;13.52;;;;;;;18.40;41.12;98628.97;5049088;28;20496;-75
2022/05/02 09:00:07;;;;;;;17.73;12.27;;;;;;;18.53;40.82;98620.69;5052023;28;20017;-74
2022/05/02 09:02:44;;;;;;;18.60;14.07;;;;;;;18.60;41.01;98618.13;5050518;28;20017;-74
2022/05/02 09:05:47;;;;;;;17.70;12.85;;;;;;;18.64;40.48;98612.69;5050674;28;20017;-74
2022/05/02 09:08:33;;;;;;;22.25;15.07;;;;;;;18.69;39.58;98615.25;5050874;28;20043;-74
2022/05/02 09:11:32;;;;;;;24.02;14.57;;;;;;;18.81;40.22;98614.44;5052469;28;20043;-75
2022/05/02 09:14:09;;;;;;;19.42;14.18;;;;;;;18.95;39.93;98609.31;5051923;28;20112;-74
2022/05/02 09:17:15;;;;;;;13.63;9.25;;;;;;;19.11;38.67;98612.25;5052080;28;20029;-74
2022/05/02 09:20:18;;;;;;;9.35;7.57;;;;;;;19.26;38.43;98609.88;5052546;28;20116;-74
2022/05/02 09:23:02;;;;;;;13.27;7.85;;;;;;;19.41;38.52;98606.38;5052016;28;20033;-74
2022/05/02 09:25:34;;;;;;;13.30;8.00;;;;;;;19.56;37.63;98607.59;5047977;28;20033;-74
2022/05/02 09:28:20;;;;;;;15.05;10.90;;;;;;;19.76;38.41;98605.00;5044943;28;20045;-74
2022/05/02 09:31:07;;;;;;;16.00;10.55;;;;;;;20.04;37.74;98607.75;5048341;28;20029;-73
2022/05/02 09:33:41;;;;;;;16.48;11.52;;;;;;;20.22;38.12;98605.47;5047457;28;20051;-72
2022/05/02 09:36:30;;;;;;;15.80;11.25;;;;;;;20.23;37.14;98600.72;5050758;28;20043;-73
2022/05/02 09:39:22;;;;;;;13.15;9.90;;;;;;;20.28;37.55;98597.66;5049783;28;20040;-73
2022/05/02 09:42:27;;;;;;;16.35;10.68;;;;;;;20.37;37.75;98594.69;5046780;28;20035;-72
2022/05/02 09:51:28;;;;;;;16.80;12.68;;;;;;;20.21;36.48;98584.34;5047177;28;20061;-71
2022/05/02 09:56:37;;;;;;;11.23;9.23;;;;;;;20.26;36.48;98590.81;5048066;28;20021;-73
2022/05/02 09:57:17;;;;;;;11.93;9.05;;;;;;;20.30;36.37;98583.38;5049682;28;20058;-72
2022/05/02 10:01:06;;;;;;;13.18;9.18;;;;;;;20.46;36.92;98588.94;5049151;28;20044;-70
2022/05/02 10:02:46;;;;;;;9.88;7.80;;;;;;;20.63;36.11;98569.09;5048777;28;20100;-71
2022/05/02 10:05:21;;;;;;;10.02;7.25;;;;;;;20.69;35.70;98569.59;5050066;28;20477;-71
2022/05/02 10:08:01;;;;;;;8.98;7.43;;;;;;;20.81;35.73;98575.09;5049447;28;20035;-72
2022/05/02 10:10:39;;;;;;;9.13;6.70;;;;;;;20.93;36.14;98567.81;5048709;28;20958;-71
2022/05/02 10:13:05;;;;;;;9.77;7.18;;;;;;;21.06;35.78;98560.13;5049714;28;20444;-72
2022/05/02 10:15:48;;;;;;;8.80;7.35;;;;;;;21.14;35.09;98561.09;5052764;28;20032;-71
2022/05/02 10:18:13;;;;;;;9.38;7.10;;;;;;;21.20;34.99;98548.47;5054063;28;20036;-72
2022/05/02 10:21:14;;;;;;;9.05;7.72;;;;;;;21.22;33.38;98546.13;5049778;28;20102;-71
2022/05/02 10:24:13;;;;;;;11.15;8.00;;;;;;;21.26;32.06;98547.81;5049679;28;20025;-72
2022/05/02 10:26:52;;;;;;;8.80;7.50;;;;;;;21.29;31.90;98542.66;5052836;28;20461;-73
2022/05/02 10:29:31;;;;;;;;;;;;;;;21.31;30.49;98540.31;5053409;28;20024;-73
2022/05/02 10:32:10;;;;;;;;;;;;;;;21.34;30.45;98540.41;5051224;28;19974;-72
2022/05/02 10:34:37;;;;;;;10.00;7.22;;;;;;;21.45;31.33;98535.06;5053249;28;19916;-72
2022/05/02 10:37:07;;;;;;;8.35;6.75;;;;;;;21.66;31.26;98534.69;5049854;28;20027;-72
2022/05/02 10:39:47;;;;;;;;;;;;;;;21.73;28.98;98530.44;5056044;28;20020;-73
2022/05/02 10:42:16;;;;;;;9.10;7.30;;;;;;;21.81;28.95;98521.00;5051812;28;19920;-72
2022/05/02 10:45:03;;;;;;;8.60;6.93;;;;;;;21.84;29.75;98517.47;5042693;28;20025;-70
2022/05/02 10:47:38;;;;;;;9.38;6.60;;;;;;;21.78;28.36;98516.97;5047619;28;20035;-73
2022/05/02 10:50:26;;;;;;;7.75;6.57;;;;;;;21.64;29.65;98516.69;5047617;28;20056;-73
2022/05/02 10:53:03;;;;;;;6.95;6.22;;;;;;;21.63;30.24;98523.44;5048227;28;20052;-71
2022/05/02 10:55:33;;;;;;;10.10;6.65;;;;;;;21.59;29.23;98517.00;5048128;28;20028;-71
2022/05/02 10:58:05;;;;;;;9.63;7.75;;;;;;;21.52;30.23;98512.88;5047765;28;20064;-71
2022/05/02 11:00:31;;;;;;;8.80;7.03;;;;;;;21.47;28.76;98510.38;5044974;28;20017;-71
2022/05/02 11:02:59;;;;;;;9.93;7.00;;;;;;;21.34;29.45;98511.69;5047203;28;20017;-72
2022/05/02 11:05:34;;;;;;;8.13;6.38;;;;;;;21.28;29.66;98513.97;5047958;28;20017;-71
2022/05/02 11:08:11;;;;;;;10.25;7.15;;;;;;;21.14;29.20;98510.88;5047296;28;20025;-75
2022/05/02 11:10:50;;;;;;;8.90;6.70;;;;;;;20.99;30.00;98510.56;5045545;28;20108;-74
2022/05/02 11:13:23;;;;;;;10.18;7.30;;;;;;;20.89;29.48;98511.16;5047184;28;20115;-74
2022/05/02 11:15:57;;;;;;;8.20;6.38;;;;;;;20.70;29.41;98507.13;5047271;28;20025;-73
2022/05/02 11:22:08;;;;;;;9.25;6.50;;;;;;;20.57;30.67;98516.78;5047108;28;20058;-75
2022/05/02 11:24:38;;;;;;;9.15;6.53;;;;;;;20.59;30.18;98504.09;5047554;28;20021;-75
2022/05/02 11:27:21;;;;;;;8.25;6.18;;;;;;;20.60;30.84;98505.72;5044803;28;20021;-75
2022/05/02 11:30:06;;;;;;;9.52;6.05;;;;;;;20.62;31.03;98503.38;5048829;28;20553;-75
2022/05/02 11:32:51;;;;;;;8.98;6.25;;;;;;;20.66;31.07;98506.22;5051387;28;20032;-75
2022/05/02 11:35:24;;;;;;;8.20;6.97;;;;;;;20.66;31.09;98498.69;5043168;28;20124;-75
2022/05/02 11:38:04;;;;;;;9.63;6.45;;;;;;;20.86;31.85;98493.16;5051626;28;20029;-76
2022/05/02 11:40:41;;;;;;;7.85;6.35;;;;;;;21.16;32.54;98492.63;5052590;28;20470;-73
2022/05/02 11:43:08;;;;;;;8.27;6.60;;;;;;;21.40;31.68;98497.06;5052948;28;20591;-74
2022/05/02 11:45:47;;;;;;;8.35;6.40;;;;;;;21.70;31.62;98485.34;5051016;28;20044;-75
2022/05/02 11:48:27;;;;;;;6.80;6.03;;;;;;;22.01;31.95;98489.06;5050881;28;20040;-75
2022/05/02 11:50:56;;;;;;;7.80;6.53;;;;;;;22.30;31.66;98488.75;5052607;28;20086;-73
2022/05/02 11:53:28;;;;;;;9.25;6.07;;;;;;;22.55;31.59;98477.97;5051465;28;20032;-76
2022/05/02 11:55:55;;;;;;;6.63;5.85;;;;;;;22.78;30.72;98479.09;5049524;28;20483;-75
2022/05/02 11:58:45;;;;;;;7.93;6.50;;;;;;;22.80;30.34;98477.53;5049304;28;20036;-75
2022/05/02 12:01:11;;;;;;;8.35;6.65;;;;;;;22.65;29.15;98470.09;5051093;28;20063;-74
2022/05/02 12:03:51;;;;;;;9.13;6.13;;;;;;;22.54;29.39;98470.78;5050872;28;20033;-75
2022/05/02 12:06:28;;;;;;;7.93;6.05;;;;;;;22.43;29.70;98472.56;5047736;28;20443;-75
2022/05/02 12:08:57;;;;;;;7.82;5.63;;;;;;;22.35;29.76;98476.44;5051279;28;20410;-74
2022/05/02 12:11:22;;;;;;;8.85;6.72;;;;;;;22.31;29.68;98473.59;5051691;28;20031;-75
2022/05/02 12:13:51;;;;;;;7.93;6.38;;;;;;;22.27;29.73;98473.50;5053154;28;20025;-74
2022/05/02 12:16:20;;;;;;;10.73;7.30;;;;;;;22.22;29.26;98465.44;5046683;28;20032;-74
2022/05/02 12:18:50;;;;;;;9.32;6.68;;;;;;;22.14;28.22;98464.53;5050129;28;20036;-75